sensor_id;sensor_type;location;lat;lon;timestamp;pressure;altitude;pressure_sealevel;temperature;humidity
68301;BME280;55146;47.468;18.806;2022-10-15T00:00:20;100242.19;;;11.27;84.66
68301;BME280;55146;47.468;18.806;2022-10-15T00:02:45;100236.13;;;11.20;84.65
68301;BME280;55146;47.468;18.806;2022-10-15T00:05:11;100246.87;;;11.17;84.80
68301;BME280;55146;47.468;18.806;2022-10-15T00:07:36;100248.81;;;11.16;84.93
68301;BME280;55146;47.468;18.806;2022-10-15T00:10:02;100238.91;;;11.15;84.64
68301;BME280;55146;47.468;18.806;2022-10-15T00:12:27;100242.47;;;11.16;84.42
68301;BME280;55146;47.468;18.806;2022-10-15T00:14:53;100241.66;;;11.15;84.67
68301;BME280;55146;47.468;18.806;2022-10-15T00:17:18;100242.47;;;11.11;84.63
68301;BME280;55146;47.468;18.806;2022-10-15T00:19:43;100246.03;;;11.11;85.00
68301;BME280;55146;47.468;18.806;2022-10-15T00:22:09;100244.94;;;11.07;85.32
68301;BME280;55146;47.468;18.806;2022-10-15T00:24:35;100241.66;;;11.10;85.25
68301;BME280;55146;47.468;18.806;2022-10-15T00:27:01;100234.50;;;11.09;85.34
68301;BME280;55146;47.468;18.806;2022-10-15T00:29:26;100245.50;;;11.09;85.47
68301;BME280;55146;47.468;18.806;2022-10-15T00:31:51;100244.37;;;11.05;85.30
68301;BME280;55146;47.468;18.806;2022-10-15T00:34:17;100240.53;;;11.01;85.14
68301;BME280;55146;47.468;18.806;2022-10-15T00:36:42;100232.81;;;10.98;85.79
68301;BME280;55146;47.468;18.806;2022-10-15T00:39:07;100236.41;;;11.04;85.75
68301;BME280;55146;47.468;18.806;2022-10-15T00:41:35;100233.37;;;11.00;85.90
68301;BME280;55146;47.468;18.806;2022-10-15T00:46:47;100228.41;;;10.97;85.91
68301;BME280;55146;47.468;18.806;2022-10-15T00:49:36;100220.69;;;10.94;85.78
68301;BME280;55146;47.468;18.806;2022-10-15T00:55:00;100222.63;;;10.88;85.80
68301;BME280;55146;47.468;18.806;2022-10-15T00:57:27;100222.34;;;10.85;86.07
68301;BME280;55146;47.468;18.806;2022-10-15T00:59:57;100215.47;;;10.87;86.16
68301;BME280;55146;47.468;18.806;2022-10-15T01:02:25;100226.19;;;10.84;86.25
68301;BME280;55146;47.468;18.806;2022-10-15T01:04:52;100217.69;;;10.85;86.04
68301;BME280;55146;47.468;18.806;2022-10-15T01:07:17;100203.88;;;10.80;86.19
68301;BME280;55146;47.468;18.806;2022-10-15T01:09:43;100203.09;;;10.85;85.87
68301;BME280;55146;47.468;18.806;2022-10-15T01:12:18;100203.63;;;10.77;85.99
68301;BME280;55146;47.468;18.806;2022-10-15T01:15:00;100200.31;;;10.75;85.97
68301;BME280;55146;47.468;18.806;2022-10-15T01:23:09;100196.72;;;10.69;85.93
68301;BME280;55146;47.468;18.806;2022-10-15T01:30:46;100201.66;;;10.62;85.81
68301;BME280;55146;47.468;18.806;2022-10-15T01:33:26;100196.16;;;10.57;85.92
68301;BME280;55146;47.468;18.806;2022-10-15T01:43:29;100188.44;;;10.54;85.60
68301;BME280;55146;47.468;18.806;2022-10-15T01:46:01;100190.63;;;10.52;85.52
68301;BME280;55146;47.468;18.806;2022-10-15T01:48:28;100190.34;;;10.43;85.66
68301;BME280;55146;47.468;18.806;2022-10-15T01:51:00;100187.03;;;10.41;85.86
68301;BME280;55146;47.468;18.806;2022-10-15T01:53:28;100186.22;;;10.41;85.82
68301;BME280;55146;47.468;18.806;2022-10-15T01:55:59;100190.06;;;10.40;85.95
68301;BME280;55146;47.468;18.806;2022-10-15T01:58:27;100191.47;;;10.42;85.87
68301;BME280;55146;47.468;18.806;2022-10-15T02:00:54;100190.88;;;10.35;85.93
68301;BME280;55146;47.468;18.806;2022-10-15T02:03:21;100197.75;;;10.38;85.94
68301;BME280;55146;47.468;18.806;2022-10-15T02:06:09;100196.13;;;10.37;86.03
68301;BME280;55146;47.468;18.806;2022-10-15T02:11:19;100192.22;;;10.33;86.04
68301;BME280;55146;47.468;18.806;2022-10-15T02:13:55;100192.22;;;10.33;86.06
68301;BME280;55146;47.468;18.806;2022-10-15T02:19:11;100201.31;;;10.28;86.51
68301;BME280;55146;47.468;18.806;2022-10-15T02:22:12;100192.22;;;10.28;86.45
68301;BME280;55146;47.468;18.806;2022-10-15T02:24:43;100190.31;;;10.28;86.28
68301;BME280;55146;47.468;18.806;2022-10-15T02:27:12;100180.13;;;10.24;86.33
68301;BME280;55146;47.468;18.806;2022-10-15T02:29:40;100180.91;;;10.19;86.31
68301;BME280;55146;47.468;18.806;2022-10-15T02:32:07;100176.56;;;10.23;86.64
68301;BME280;55146;47.468;18.806;2022-10-15T02:34:34;100175.16;;;10.21;86.79
68301;BME280;55146;47.468;18.806;2022-10-15T02:37:02;100181.22;;;10.23;86.89
68301;BME280;55146;47.468;18.806;2022-10-15T02:39:28;100179.28;;;10.23;86.78
68301;BME280;55146;47.468;18.806;2022-10-15T02:41:54;100168.56;;;10.22;86.81
68301;BME280;55146;47.468;18.806;2022-10-15T02:44:21;100168.31;;;10.23;86.64
68301;BME280;55146;47.468;18.806;2022-10-15T02:46:46;100174.88;;;10.17;86.75
68301;BME280;55146;47.468;18.806;2022-10-15T02:49:11;100174.88;;;10.17;87.16
68301;BME280;55146;47.468;18.806;2022-10-15T02:51:37;100167.16;;;10.19;86.76
68301;BME280;55146;47.468;18.806;2022-10-15T02:54:04;100158.41;;;10.22;86.52
68301;BME280;55146;47.468;18.806;2022-10-15T02:56:30;100165.53;;;10.18;86.79
68301;BME280;55146;47.468;18.806;2022-10-15T02:58:55;100163.06;;;10.17;87.05
68301;BME280;55146;47.468;18.806;2022-10-15T03:01:21;100167.13;;;10.14;86.97
68301;BME280;55146;47.468;18.806;2022-10-15T03:03:46;100157.78;;;10.10;87.08
68301;BME280;55146;47.468;18.806;2022-10-15T03:06:13;100161.34;;;10.10;87.19
68301;BME280;55146;47.468;18.806;2022-10-15T03:08:39;100151.47;;;10.14;87.01
68301;BME280;55146;47.468;18.806;2022-10-15T03:11:06;100152.28;;;10.10;86.88
68301;BME280;55146;47.468;18.806;2022-10-15T03:13:35;100155.59;;;10.12;87.26
68301;BME280;55146;47.468;18.806;2022-10-15T03:16:04;100158.87;;;10.09;87.30
68301;BME280;55146;47.468;18.806;2022-10-15T03:18:29;100159.44;;;10.11;87.53
68301;BME280;55146;47.468;18.806;2022-10-15T03:20:55;100151.97;;;10.06;87.37
68301;BME280;55146;47.468;18.806;2022-10-15T03:23:21;100155.84;;;10.05;87.46
68301;BME280;55146;47.468;18.806;2022-10-15T03:25:46;100159.69;;;10.04;87.10
68301;BME280;55146;47.468;18.806;2022-10-15T03:28:12;100156.91;;;9.99;86.91
68301;BME280;55146;47.468;18.806;2022-10-15T03:30:37;100159.09;;;9.97;86.76
68301;BME280;55146;47.468;18.806;2022-10-15T03:33:03;100160.19;;;9.96;86.90
68301;BME280;55146;47.468;18.806;2022-10-15T03:35:28;100163.78;;;9.97;86.79
68301;BME280;55146;47.468;18.806;2022-10-15T03:37:54;100157.16;;;9.93;86.68
68301;BME280;55146;47.468;18.806;2022-10-15T03:40:19;100155.50;;;9.87;86.65
68301;BME280;55146;47.468;18.806;2022-10-15T03:42:49;100158.75;;;9.79;87.04
68301;BME280;55146;47.468;18.806;2022-10-15T03:45:15;100159.06;;;9.87;87.38
68301;BME280;55146;47.468;18.806;2022-10-15T03:47:40;100164.81;;;9.86;87.37
68301;BME280;55146;47.468;18.806;2022-10-15T03:50:05;100159.84;;;9.83;87.29
68301;BME280;55146;47.468;18.806;2022-10-15T03:52:31;100158.25;;;9.87;87.41
68301;BME280;55146;47.468;18.806;2022-10-15T03:54:56;100165.91;;;9.85;87.68
68301;BME280;55146;47.468;18.806;2022-10-15T03:57:21;100168.66;;;9.85;87.60
68301;BME280;55146;47.468;18.806;2022-10-15T03:59:47;100169.75;;;9.84;87.86
68301;BME280;55146;47.468;18.806;2022-10-15T04:02:12;100167.22;;;9.72;87.85
68301;BME280;55146;47.468;18.806;2022-10-15T04:04:37;100164.50;;;9.77;88.04
68301;BME280;55146;47.468;18.806;2022-10-15T04:07:03;100153.78;;;9.75;88.16
68301;BME280;55146;47.468;18.806;2022-10-15T04:09:28;100152.69;;;9.82;88.02
68301;BME280;55146;47.468;18.806;2022-10-15T04:11:53;100146.09;;;9.72;87.92
68301;BME280;55146;47.468;18.806;2022-10-15T04:14:19;100146.31;;;9.61;88.46
68301;BME280;55146;47.468;18.806;2022-10-15T04:16:44;100148.25;;;9.65;88.46
68301;BME280;55146;47.468;18.806;2022-10-15T04:19:09;100151.31;;;9.74;88.26
68301;BME280;55146;47.468;18.806;2022-10-15T04:21:34;100153.22;;;9.73;88.17
68301;BME280;55146;47.468;18.806;2022-10-15T04:24:00;100156.53;;;9.75;87.84
68301;BME280;55146;47.468;18.806;2022-10-15T04:26:25;100161.47;;;9.73;88.15
68301;BME280;55146;47.468;18.806;2022-10-15T04:28:50;100165.31;;;9.72;87.83
68301;BME280;55146;47.468;18.806;2022-10-15T04:31:16;100168.88;;;9.73;87.98
68301;BME280;55146;47.468;18.806;2022-10-15T04:33:41;100169.72;;;9.73;87.83
68301;BME280;55146;47.468;18.806;2022-10-15T04:36:09;100169.16;;;9.71;87.87
68301;BME280;55146;47.468;18.806;2022-10-15T04:38:36;100167.78;;;9.74;87.96
68301;BME280;55146;47.468;18.806;2022-10-15T04:41:07;100166.16;;;9.78;87.95
68301;BME280;55146;47.468;18.806;2022-10-15T04:43:34;100163.13;;;9.74;88.30
68301;BME280;55146;47.468;18.806;2022-10-15T04:46:01;100157.09;;;9.78;88.97
68301;BME280;55146;47.468;18.806;2022-10-15T04:48:28;100160.41;;;9.80;89.10
68301;BME280;55146;47.468;18.806;2022-10-15T04:50:54;100160.66;;;9.78;89.16
68301;BME280;55146;47.468;18.806;2022-10-15T04:53:20;100154.34;;;9.83;89.75
68301;BME280;55146;47.468;18.806;2022-10-15T04:55:46;100161.53;;;9.89;90.02
68301;BME280;55146;47.468;18.806;2022-10-15T04:58:12;100170.91;;;9.93;90.06
68301;BME280;55146;47.468;18.806;2022-10-15T05:00:37;100180.00;;;9.98;90.26
68301;BME280;55146;47.468;18.806;2022-10-15T05:03:06;100177.25;;;9.98;90.29
68301;BME280;55146;47.468;18.806;2022-10-15T05:05:32;100169.53;;;10.00;90.39
68301;BME280;55146;47.468;18.806;2022-10-15T05:08:02;100169.53;;;10.00;90.23
68301;BME280;55146;47.468;18.806;2022-10-15T05:10:27;100170.66;;;9.99;90.16
68301;BME280;55146;47.468;18.806;2022-10-15T05:12:53;100169.28;;;9.97;90.50
68301;BME280;55146;47.468;18.806;2022-10-15T05:15:18;100178.91;;;9.99;90.21
68301;BME280;55146;47.468;18.806;2022-10-15T05:17:43;100176.69;;;9.96;90.07
68301;BME280;55146;47.468;18.806;2022-10-15T05:20:09;100182.44;;;10.00;89.82
68301;BME280;55146;47.468;18.806;2022-10-15T05:22:34;100178.63;;;10.01;89.68
68301;BME280;55146;47.468;18.806;2022-10-15T05:25:00;100180.00;;;9.98;89.88
68301;BME280;55146;47.468;18.806;2022-10-15T05:27:25;100178.09;;;10.04;89.86
68301;BME280;55146;47.468;18.806;2022-10-15T05:29:50;100174.53;;;10.08;90.02
68301;BME280;55146;47.468;18.806;2022-10-15T05:32:16;100170.09;;;10.02;90.60
68301;BME280;55146;47.468;18.806;2022-10-15T05:34:41;100164.62;;;10.07;90.99
68301;BME280;55146;47.468;18.806;2022-10-15T05:37:06;100165.72;;;10.06;91.20
68301;BME280;55146;47.468;18.806;2022-10-15T05:39:32;100161.63;;;10.14;91.75
68301;BME280;55146;47.468;18.806;2022-10-15T05:41:57;100157.28;;;10.18;91.80
68301;BME280;55146;47.468;18.806;2022-10-15T05:44:22;100172.16;;;10.27;92.74
68301;BME280;55146;47.468;18.806;2022-10-15T05:46:47;100166.66;;;10.32;92.60
68301;BME280;55146;47.468;18.806;2022-10-15T05:49:13;100166.66;;;10.37;92.29
68301;BME280;55146;47.468;18.806;2022-10-15T05:51:38;100169.47;;;10.42;92.09
68301;BME280;55146;47.468;18.806;2022-10-15T05:54:03;100178.22;;;10.39;92.25
68301;BME280;55146;47.468;18.806;2022-10-15T05:56:29;100162.53;;;10.30;93.38
68301;BME280;55146;47.468;18.806;2022-10-15T05:58:54;100171.63;;;10.35;93.05
68301;BME280;55146;47.468;18.806;2022-10-15T06:01:20;100168.31;;;10.38;92.96
68301;BME280;55146;47.468;18.806;2022-10-15T06:03:45;100179.34;;;10.43;93.38
68301;BME280;55146;47.468;18.806;2022-10-15T06:08:41;100194.53;;;10.61;93.23
68301;BME280;55146;47.468;18.806;2022-10-15T06:11:06;100192.03;;;10.65;93.24
68301;BME280;55146;47.468;18.806;2022-10-15T06:13:31;100201.69;;;10.67;93.34
68301;BME280;55146;47.468;18.806;2022-10-15T06:15:56;100201.44;;;10.74;93.32
68301;BME280;55146;47.468;18.806;2022-10-15T06:18:22;100198.94;;;10.77;93.61
68301;BME280;55146;47.468;18.806;2022-10-15T06:20:51;100202.78;;;10.86;93.76
68301;BME280;55146;47.468;18.806;2022-10-15T06:23:17;100207.50;;;10.86;94.31
68301;BME280;55146;47.468;18.806;2022-10-15T06:25:43;100209.16;;;10.97;93.98
68301;BME280;55146;47.468;18.806;2022-10-15T06:28:08;100217.13;;;11.09;93.21
68301;BME280;55146;47.468;18.806;2022-10-15T06:30:34;100211.62;;;11.19;93.26
68301;BME280;55146;47.468;18.806;2022-10-15T06:32:59;100217.41;;;11.27;93.08
68301;BME280;55146;47.468;18.806;2022-10-15T06:35:25;100214.91;;;11.36;92.79
68301;BME280;55146;47.468;18.806;2022-10-15T06:37:51;100212.97;;;11.52;92.65
68301;BME280;55146;47.468;18.806;2022-10-15T06:40:17;100217.34;;;11.73;92.15
68301;BME280;55146;47.468;18.806;2022-10-15T06:42:42;100212.91;;;12.02;90.95
68301;BME280;55146;47.468;18.806;2022-10-15T06:45:08;100214.13;;;12.35;89.50
68301;BME280;55146;47.468;18.806;2022-10-15T06:47:35;100216.97;;;12.69;88.21
68301;BME280;55146;47.468;18.806;2022-10-15T06:50:00;100220.59;;;13.04;86.57
68301;BME280;55146;47.468;18.806;2022-10-15T06:52:28;100229.22;;;13.36;84.33
68301;BME280;55146;47.468;18.806;2022-10-15T06:54:53;100236.47;;;13.61;82.98
68301;BME280;55146;47.468;18.806;2022-10-15T06:57:19;100233.06;;;13.69;82.77
68301;BME280;55146;47.468;18.806;2022-10-15T06:59:44;100239.53;;;13.25;83.44
68301;BME280;55146;47.468;18.806;2022-10-15T07:02:10;100239.56;;;13.54;79.73
68301;BME280;55146;47.468;18.806;2022-10-15T07:04:36;100237.22;;;13.66;79.04
68301;BME280;55146;47.468;18.806;2022-10-15T07:07:01;100223.63;;;13.75;78.74
68301;BME280;55146;47.468;18.806;2022-10-15T07:09:26;100227.34;;;14.13;77.89
68301;BME280;55146;47.468;18.806;2022-10-15T07:11:52;100227.81;;;14.44;76.17
68301;BME280;55146;47.468;18.806;2022-10-15T07:14:17;100226.66;;;14.69;74.22
68301;BME280;55146;47.468;18.806;2022-10-15T07:16:42;100229.28;;;14.79;73.50
68301;BME280;55146;47.468;18.806;2022-10-15T07:19:08;100228.97;;;14.80;73.36
68301;BME280;55146;47.468;18.806;2022-10-15T07:21:34;100225.66;;;14.97;72.98
68301;BME280;55146;47.468;18.806;2022-10-15T07:24:00;100234.25;;;15.33;72.80
68301;BME280;55146;47.468;18.806;2022-10-15T07:26:26;100222.38;;;15.46;73.11
68301;BME280;55146;47.468;18.806;2022-10-15T07:28:53;100217.22;;;15.72;70.81
68301;BME280;55146;47.468;18.806;2022-10-15T07:31:19;100213.97;;;15.84;69.75
68301;BME280;55146;47.468;18.806;2022-10-15T07:33:45;100219.53;;;15.97;67.85
68301;BME280;55146;47.468;18.806;2022-10-15T07:36:11;100219.44;;;16.16;67.05
68301;BME280;55146;47.468;18.806;2022-10-15T07:38:39;100222.09;;;16.21;67.13
68301;BME280;55146;47.468;18.806;2022-10-15T07:41:06;100216.34;;;16.17;67.32
68301;BME280;55146;47.468;18.806;2022-10-15T07:43:33;100216.56;;;16.21;67.32
68301;BME280;55146;47.468;18.806;2022-10-15T07:45:59;100216.94;;;15.87;67.65
68301;BME280;55146;47.468;18.806;2022-10-15T07:48:24;100229.78;;;15.83;68.16
68301;BME280;55146;47.468;18.806;2022-10-15T07:50:57;100215.38;;;15.81;67.89
68301;BME280;55146;47.468;18.806;2022-10-15T07:53:23;100226.06;;;15.74;68.10
68301;BME280;55146;47.468;18.806;2022-10-15T07:55:48;100225.03;;;15.70;68.43
68301;BME280;55146;47.468;18.806;2022-10-15T07:58:14;100225.00;;;15.56;68.79
68301;BME280;55146;47.468;18.806;2022-10-15T08:00:39;100235.94;;;15.66;68.54
68301;BME280;55146;47.468;18.806;2022-10-15T08:03:05;100234.28;;;15.65;68.93
68301;BME280;55146;47.468;18.806;2022-10-15T08:05:30;100238.69;;;15.66;69.59
68301;BME280;55146;47.468;18.806;2022-10-15T08:07:56;100249.06;;;15.74;68.79
68301;BME280;55146;47.468;18.806;2022-10-15T08:10:21;100241.44;;;15.53;69.14
68301;BME280;55146;47.468;18.806;2022-10-15T08:12:46;100241.69;;;15.51;69.80
68301;BME280;55146;47.468;18.806;2022-10-15T08:15:12;100242.69;;;15.60;68.71
68301;BME280;55146;47.468;18.806;2022-10-15T08:17:37;100249.06;;;15.61;68.57
68301;BME280;55146;47.468;18.806;2022-10-15T08:20:03;100257.22;;;15.85;68.59
68301;BME280;55146;47.468;18.806;2022-10-15T08:22:28;100253.87;;;15.69;67.96
68301;BME280;55146;47.468;18.806;2022-10-15T08:24:54;100257.16;;;15.57;69.71
68301;BME280;55146;47.468;18.806;2022-10-15T08:27:19;100254.50;;;15.66;69.38
68301;BME280;55146;47.468;18.806;2022-10-15T08:29:45;100247.44;;;15.73;69.05
68301;BME280;55146;47.468;18.806;2022-10-15T08:32:11;100253.00;;;15.87;68.44
68301;BME280;55146;47.468;18.806;2022-10-15T08:34:37;100250.22;;;15.87;68.15
68301;BME280;55146;47.468;18.806;2022-10-15T08:37:02;100247.19;;;16.16;67.50
68301;BME280;55146;47.468;18.806;2022-10-15T08:39:28;100251.19;;;16.10;66.18
68301;BME280;55146;47.468;18.806;2022-10-15T08:41:55;100246.47;;;16.24;65.84
68301;BME280;55146;47.468;18.806;2022-10-15T08:44:29;100246.38;;;16.29;65.38
68301;BME280;55146;47.468;18.806;2022-10-15T08:50:00;100242.34;;;16.76;63.57
68301;BME280;55146;47.468;18.806;2022-10-15T08:52:45;100254.59;;;16.75;63.23
68301;BME280;55146;47.468;18.806;2022-10-15T08:55:13;100253.75;;;16.75;63.71
68301;BME280;55146;47.468;18.806;2022-10-15T08:57:57;100255.59;;;16.79;62.67
68301;BME280;55146;47.468;18.806;2022-10-15T09:00:33;100253.44;;;16.90;63.08
68301;BME280;55146;47.468;18.806;2022-10-15T09:03:04;100240.50;;;17.08;63.03
68301;BME280;55146;47.468;18.806;2022-10-15T09:05:49;100241.59;;;17.20;63.59
68301;BME280;55146;47.468;18.806;2022-10-15T09:08:28;100246.38;;;17.06;63.06
68301;BME280;55146;47.468;18.806;2022-10-15T09:13:52;100252.38;;;16.99;63.90
68301;BME280;55146;47.468;18.806;2022-10-15T09:16:38;100263.63;;;17.17;63.16
68301;BME280;55146;47.468;18.806;2022-10-15T09:19:11;100268.88;;;17.18;62.79
68301;BME280;55146;47.468;18.806;2022-10-15T09:21:38;100270.63;;;17.28;62.36
68301;BME280;55146;47.468;18.806;2022-10-15T09:24:04;100269.91;;;17.45;62.71
68301;BME280;55146;47.468;18.806;2022-10-15T09:26:49;100263.78;;;17.56;62.35
68301;BME280;55146;47.468;18.806;2022-10-15T09:30:17;100270.25;;;17.88;60.21
68301;BME280;55146;47.468;18.806;2022-10-15T09:32:29;100273.53;;;17.67;61.09
68301;BME280;55146;47.468;18.806;2022-10-15T09:35:02;100267.69;;;17.77;61.88
68301;BME280;55146;47.468;18.806;2022-10-15T09:42:57;100252.88;;;18.22;59.92
68301;BME280;55146;47.468;18.806;2022-10-15T09:45:24;100244.06;;;18.28;60.17
68301;BME280;55146;47.468;18.806;2022-10-15T09:47:50;100254.25;;;18.41;61.21
68301;BME280;55146;47.468;18.806;2022-10-15T09:50:15;100251.50;;;18.50;58.63
68301;BME280;55146;47.468;18.806;2022-10-15T09:53:10;100243.41;;;18.31;60.11
68301;BME280;55146;47.468;18.806;2022-10-15T09:55:46;100245.28;;;18.05;59.38
68301;BME280;55146;47.468;18.806;2022-10-15T09:58:24;100258.34;;;17.96;60.16
68301;BME280;55146;47.468;18.806;2022-10-15T10:00:56;100259.88;;;18.10;60.34
68301;BME280;55146;47.468;18.806;2022-10-15T10:03:25;100261.69;;;17.84;61.07
68301;BME280;55146;47.468;18.806;2022-10-15T10:05:58;100261.13;;;17.96;59.33
68301;BME280;55146;47.468;18.806;2022-10-15T10:08:26;100253.25;;;17.98;59.70
68301;BME280;55146;47.468;18.806;2022-10-15T10:11:00;100241.66;;;18.04;59.61
68301;BME280;55146;47.468;18.806;2022-10-15T10:13:37;100241.41;;;18.14;59.82
68301;BME280;55146;47.468;18.806;2022-10-15T10:16:06;100239.81;;;18.31;58.66
68301;BME280;55146;47.468;18.806;2022-10-15T10:18:33;100244.75;;;18.42;58.80
68301;BME280;55146;47.468;18.806;2022-10-15T10:21:00;100244.37;;;18.57;57.89
68301;BME280;55146;47.468;18.806;2022-10-15T10:23:37;100244.00;;;18.59;57.57
68301;BME280;55146;47.468;18.806;2022-10-15T10:26:05;100234.69;;;18.72;56.73
68301;BME280;55146;47.468;18.806;2022-10-15T10:28:33;100231.62;;;19.25;55.91
68301;BME280;55146;47.468;18.806;2022-10-15T10:31:06;100228.50;;;19.53;54.21
68301;BME280;55146;47.468;18.806;2022-10-15T10:36:07;100219.63;;;19.33;55.02
68301;BME280;55146;47.468;18.806;2022-10-15T10:39:38;100214.72;;;19.30;55.58
68301;BME280;55146;47.468;18.806;2022-10-15T10:49:34;100217.69;;;18.91;54.91
68301;BME280;55146;47.468;18.806;2022-10-15T10:52:02;100210.44;;;18.90;53.78
68301;BME280;55146;47.468;18.806;2022-10-15T10:54:28;100210.56;;;18.59;54.07
68301;BME280;55146;47.468;18.806;2022-10-15T10:56:55;100213.56;;;18.63;54.41
68301;BME280;55146;47.468;18.806;2022-10-15T10:59:26;100219.38;;;18.52;55.61
68301;BME280;55146;47.468;18.806;2022-10-15T11:01:52;100207.03;;;18.28;56.34
68301;BME280;55146;47.468;18.806;2022-10-15T11:04:24;100210.03;;;18.48;56.16
68301;BME280;55146;47.468;18.806;2022-10-15T11:10:04;100202.31;;;18.37;55.12
68301;BME280;55146;47.468;18.806;2022-10-15T11:12:49;100189.06;;;18.42;56.43
68301;BME280;55146;47.468;18.806;2022-10-15T11:15:30;100189.56;;;18.44;56.01
68301;BME280;55146;47.468;18.806;2022-10-15T11:29:57;100162.34;;;18.33;56.50
68301;BME280;55146;47.468;18.806;2022-10-15T11:35:09;100150.69;;;18.31;56.30
68301;BME280;55146;47.468;18.806;2022-10-15T11:42:54;100141.53;;;18.47;55.37
68301;BME280;55146;47.468;18.806;2022-10-15T11:45:37;100144.06;;;18.57;55.54
68301;BME280;55146;47.468;18.806;2022-10-15T11:48:12;100151.38;;;18.53;54.89
68301;BME280;55146;47.468;18.806;2022-10-15T11:50:45;100144.06;;;18.57;54.79
68301;BME280;55146;47.468;18.806;2022-10-15T11:53:28;100148.81;;;18.57;55.56
68301;BME280;55146;47.468;18.806;2022-10-15T11:56:14;100150.72;;;18.48;55.11
68301;BME280;55146;47.468;18.806;2022-10-15T11:58:55;100151.19;;;18.41;56.43
68301;BME280;55146;47.468;18.806;2022-10-15T12:01:33;100146.59;;;18.45;55.63
68301;BME280;55146;47.468;18.806;2022-10-15T12:04:10;100145.81;;;18.45;56.31
68301;BME280;55146;47.468;18.806;2022-10-15T12:06:43;100142.84;;;18.50;55.08
68301;BME280;55146;47.468;18.806;2022-10-15T12:09:15;100135.78;;;18.52;55.18
68301;BME280;55146;47.468;18.806;2022-10-15T12:11:48;100137.59;;;18.48;54.79
68301;BME280;55146;47.468;18.806;2022-10-15T12:14:24;100137.66;;;18.57;54.98
68301;BME280;55146;47.468;18.806;2022-10-15T12:19:41;100125.81;;;18.51;55.23
68301;BME280;55146;47.468;18.806;2022-10-15T12:22:10;100129.63;;;18.55;55.30
68301;BME280;55146;47.468;18.806;2022-10-15T12:27:24;100127.59;;;18.47;54.04
68301;BME280;55146;47.468;18.806;2022-10-15T12:30:11;100134.31;;;18.46;53.92
68301;BME280;55146;47.468;18.806;2022-10-15T12:32:40;100131.87;;;18.45;54.70
68301;BME280;55146;47.468;18.806;2022-10-15T12:35:32;100134.47;;;18.41;53.98
68301;BME280;55146;47.468;18.806;2022-10-15T12:38:09;100133.97;;;18.31;55.65
68301;BME280;55146;47.468;18.806;2022-10-15T12:40:38;100132.00;;;18.31;54.45
68301;BME280;55146;47.468;18.806;2022-10-15T12:43:15;100124.28;;;18.28;54.71
68301;BME280;55146;47.468;18.806;2022-10-15T12:45:59;100121.06;;;18.43;54.04
68301;BME280;55146;47.468;18.806;2022-10-15T12:53:51;100117.94;;;18.45;54.48
68301;BME280;55146;47.468;18.806;2022-10-15T12:56:21;100117.12;;;18.44;55.34
68301;BME280;55146;47.468;18.806;2022-10-15T12:58:54;100123.66;;;18.40;54.73
68301;BME280;55146;47.468;18.806;2022-10-15T13:08:47;100117.44;;;18.43;54.97
68301;BME280;55146;47.468;18.806;2022-10-15T13:11:26;100114.00;;;18.46;54.48
68301;BME280;55146;47.468;18.806;2022-10-15T13:14:17;100120.72;;;18.36;55.77
68301;BME280;55146;47.468;18.806;2022-10-15T13:16:46;100116.94;;;18.41;55.16
68301;BME280;55146;47.468;18.806;2022-10-15T13:19:20;100119.72;;;18.41;54.67
68301;BME280;55146;47.468;18.806;2022-10-15T13:21:54;100123.50;;;18.36;54.76
68301;BME280;55146;47.468;18.806;2022-10-15T13:24:26;100121.69;;;18.32;55.06
68301;BME280;55146;47.468;18.806;2022-10-15T13:26:54;100116.94;;;18.32;54.11
68301;BME280;55146;47.468;18.806;2022-10-15T13:29:23;100116.59;;;18.34;54.61
68301;BME280;55146;47.468;18.806;2022-10-15T13:31:50;100118.25;;;18.26;55.46
68301;BME280;55146;47.468;18.806;2022-10-15T13:34:30;100117.25;;;18.31;54.52
68301;BME280;55146;47.468;18.806;2022-10-15T13:36:59;100120.03;;;18.22;55.59
68301;BME280;55146;47.468;18.806;2022-10-15T13:39:36;100113.31;;;18.23;55.51
68301;BME280;55146;47.468;18.806;2022-10-15T13:44:37;100127.56;;;18.13;56.12
68301;BME280;55146;47.468;18.806;2022-10-15T13:47:22;100131.47;;;18.12;56.02
68301;BME280;55146;47.468;18.806;2022-10-15T13:49:48;100126.56;;;18.17;55.42
68301;BME280;55146;47.468;18.806;2022-10-15T13:52:14;100124.44;;;18.14;55.59
68301;BME280;55146;47.468;18.806;2022-10-15T13:54:43;100118.06;;;18.14;55.91
68301;BME280;55146;47.468;18.806;2022-10-15T13:57:13;100122.94;;;18.08;56.25
68301;BME280;55146;47.468;18.806;2022-10-15T13:59:43;100122.63;;;18.10;54.91
68301;BME280;55146;47.468;18.806;2022-10-15T14:02:10;100118.53;;;18.07;55.64
68301;BME280;55146;47.468;18.806;2022-10-15T14:04:37;100114.72;;;18.03;56.07
68301;BME280;55146;47.468;18.806;2022-10-15T14:07:17;100112.63;;;18.09;55.57
68301;BME280;55146;47.468;18.806;2022-10-15T14:09:45;100118.37;;;18.12;55.06
68301;BME280;55146;47.468;18.806;2022-10-15T14:12:11;100116.53;;;17.99;56.71
68301;BME280;55146;47.468;18.806;2022-10-15T14:14:40;100111.44;;;17.93;57.47
68301;BME280;55146;47.468;18.806;2022-10-15T14:17:10;100112.69;;;17.78;58.68
68301;BME280;55146;47.468;18.806;2022-10-15T14:19:46;100109.59;;;17.79;58.19
68301;BME280;55146;47.468;18.806;2022-10-15T14:22:17;100108.75;;;17.70;58.79
68301;BME280;55146;47.468;18.806;2022-10-15T14:24:46;100115.94;;;17.71;59.24
68301;BME280;55146;47.468;18.806;2022-10-15T14:27:13;100106.78;;;17.71;60.05